Time;durP1;ratioP1;P1;durP2;ratioP2;P2;SDS_P1;SDS_P2;PMS_P1;PMS_P2;Temp;Humidity;BMP_temperature;BMP_pressure;BME280_temperature;BME280_humidity;BME280_pressure;Samples;Min_cycle;Max_cycle;Signal;HPM_P1;HPM_P2
2021/11/09 05:39:46;;;;;;;10.85;3.92;;;16.00;67.40;;;;;;4808777;29;20318;-73
2021/11/09 05:42:13;;;;;;;13.45;3.90;;;16.00;66.60;;;;;;4826143;29;20057;-74
2021/11/09 05:44:54;;;;;;;10.73;4.07;;;16.00;65.90;;;;;;4810913;29;20058;-83
2021/11/09 05:47:20;;;;;;;12.85;3.65;;;16.00;65.50;;;;;;4810722;29;20062;-79
2021/11/09 05:49:45;;;;;;;9.75;4.47;;;16.00;65.20;;;;;;4810359;29;20053;-79
2021/11/09 05:52:11;;;;;;;10.10;3.95;;;16.00;64.90;;;;;;4818918;29;20049;-80
2021/11/09 05:54:39;;;;;;;12.13;4.53;;;15.90;64.90;;;;;;4808086;29;20050;-78
2021/11/09 05:57:15;;;;;;;9.95;4.10;;;16.00;65.10;;;;;;4795874;29;20050;-80
2021/11/09 05:59:42;;;;;;;12.13;4.28;;;15.90;65.40;;;;;;4826906;29;20048;-78
2021/11/09 06:02:08;;;;;;;12.65;4.43;;;16.00;65.90;;;;;;4803928;29;20046;-75
2021/11/09 06:04:34;;;;;;;14.90;5.00;;;16.00;66.50;;;;;;4841710;29;20121;-80
2021/11/09 06:06:59;;;;;;;18.50;5.63;;;16.00;67.30;;;;;;4812495;29;20054;-80
2021/11/09 06:09:25;;;;;;;12.73;4.82;;;16.00;68.60;;;;;;4814028;29;20450;-80
2021/11/09 06:11:51;;;;;;;11.23;3.92;;;16.00;69.00;;;;;;4812496;29;20057;-81
2021/11/09 06:14:19;;;;;;;16.73;4.18;;;16.10;69.10;;;;;;4810392;29;20125;-78
2021/11/09 06:16:45;;;;;;;19.83;4.35;;;16.20;69.20;;;;;;4826547;29;20120;-78
2021/11/09 06:19:14;;;;;;;10.93;3.83;;;16.30;69.30;;;;;;4827044;29;20050;-82
2021/11/09 06:21:39;;;;;;;12.10;3.63;;;16.50;69.60;;;;;;4826712;29;20178;-82
2021/11/09 06:24:06;;;;;;;9.70;3.70;;;16.60;69.40;;;;;;4821347;29;20121;-82
2021/11/09 06:26:31;;;;;;;12.85;3.50;;;16.80;69.50;;;;;;4813371;29;20045;-84
2021/11/09 06:28:59;;;;;;;12.82;3.45;;;16.90;69.50;;;;;;4828768;29;20361;-82
2021/11/09 06:31:28;;;;;;;16.20;3.85;;;17.00;69.50;;;;;;4813203;29;20053;-82
2021/11/09 06:33:53;;;;;;;10.43;3.65;;;17.10;69.40;;;;;;4797542;29;20055;-84
2021/11/09 06:36:19;;;;;;;10.00;2.75;;;17.10;69.40;;;;;;4810043;29;20050;-81
2021/11/09 06:38:48;;;;;;;12.23;4.10;;;17.20;69.40;;;;;;4806764;29;20425;-82
2021/11/09 06:41:17;;;;;;;12.50;3.92;;;17.20;69.30;;;;;;4808102;29;20050;-80
2021/11/09 06:43:42;;;;;;;8.95;2.70;;;17.30;69.20;;;;;;4806613;29;20181;-82
2021/11/09 06:46:08;;;;;;;13.52;3.78;;;17.30;69.00;;;;;;4807006;29;20501;-83
2021/11/09 06:48:34;;;;;;;8.75;3.22;;;17.30;68.80;;;;;;4821988;29;20058;-80
2021/11/09 06:51:00;;;;;;;9.57;3.70;;;17.40;68.70;;;;;;4821732;29;20097;-80
2021/11/09 06:53:28;;;;;;;11.40;3.67;;;17.30;68.80;;;;;;4806949;29;20051;-82
2021/11/09 06:55:54;;;;;;;11.98;3.33;;;17.40;68.90;;;;;;4806495;29;20058;-81
2021/11/09 06:58:20;;;;;;;15.38;3.55;;;17.50;69.00;;;;;;4822448;29;20039;-83
2021/11/09 07:00:46;;;;;;;25.52;5.10;;;17.50;69.10;;;;;;4806811;29;20069;-83
2021/11/09 07:03:12;;;;;;;11.75;4.85;;;17.60;68.00;;;;;;4806847;29;20434;-83
2021/11/09 07:05:38;;;;;;;14.38;4.82;;;17.60;67.60;;;;;;4806904;29;20074;-76
2021/11/09 07:08:04;;;;;;;15.30;3.92;;;17.70;67.20;;;;;;4807937;29;20371;-77
2021/11/09 07:10:30;;;;;;;17.33;4.30;;;17.80;67.10;;;;;;4821930;29;20144;-76
2021/11/09 07:12:55;;;;;;;19.58;4.40;;;17.80;67.00;;;;;;4807498;29;20043;-76
2021/11/09 07:15:21;;;;;;;16.27;4.68;;;17.80;67.00;;;;;;4807467;29;20063;-77
2021/11/09 07:17:48;;;;;;;17.23;4.82;;;17.80;66.50;;;;;;4808476;29;20060;-77
2021/11/09 07:20:17;;;;;;;14.80;5.82;;;17.80;66.00;;;;;;4822566;29;20054;-77
2021/11/09 07:22:44;;;;;;;15.85;5.07;;;17.80;65.80;;;;;;4807580;29;20061;-77
2021/11/09 07:25:11;;;;;;;15.27;4.65;;;17.80;65.80;;;;;;4807755;29;20070;-77
2021/11/09 07:27:38;;;;;;;14.35;5.00;;;17.70;65.70;;;;;;4806540;29;20063;-77
2021/11/09 07:30:05;;;;;;;17.15;5.22;;;17.70;65.70;;;;;;4822162;29;20089;-77
2021/11/09 07:32:30;;;;;;;13.45;4.65;;;17.60;65.70;;;;;;4821953;29;20051;-82
2021/11/09 07:34:56;;;;;;;16.20;5.63;;;17.60;65.80;;;;;;4822056;29;20466;-71
2021/11/09 07:37:24;;;;;;;12.52;4.75;;;17.60;65.90;;;;;;4809967;29;20055;-74
2021/11/09 07:39:50;;;;;;;14.55;5.88;;;17.50;65.90;;;;;;4826263;29;20054;-74
2021/11/09 07:42:17;;;;;;;18.35;5.13;;;17.50;66.00;;;;;;4825566;29;20137;-76
2021/11/09 07:44:43;;;;;;;15.05;5.03;;;17.40;66.20;;;;;;4824989;29;20050;-73
2021/11/09 07:47:09;;;;;;;19.40;5.00;;;17.40;66.40;;;;;;4825420;29;20447;-73
2021/11/09 07:49:35;;;;;;;16.40;4.68;;;17.30;66.60;;;;;;4825601;29;20050;-73
2021/11/09 07:52:01;;;;;;;19.60;5.45;;;17.30;66.90;;;;;;4825732;29;20090;-74
2021/11/09 07:54:32;;;;;;;14.75;5.22;;;17.30;67.20;;;;;;4826023;29;20089;-73
2021/11/09 07:57:02;;;;;;;22.85;5.47;;;17.30;67.30;;;;;;4825302;29;20369;-73
2021/11/09 08:02:01;;;;;;;15.50;4.60;;;17.20;67.60;;;;;;4824943;29;20116;-74
2021/11/09 08:04:33;;;;;;;;;;;17.20;67.90;;;;;;4819625;29;20050;-75
2021/11/09 08:09:35;;;;;;;14.02;5.03;;;17.10;68.20;;;;;;4828323;29;20081;-74
2021/11/09 08:12:03;;;;;;;11.98;4.07;;;17.10;68.40;;;;;;4828432;29;20050;-74
2021/11/09 08:14:29;;;;;;;13.13;4.97;;;17.10;68.50;;;;;;4828412;29;20068;-75
2021/11/09 08:16:55;;;;;;;15.35;4.90;;;17.00;68.50;;;;;;4828646;29;20051;-74
2021/11/09 08:19:21;;;;;;;12.60;4.70;;;17.00;68.60;;;;;;4828569;29;20054;-74
2021/11/09 08:21:49;;;;;;;10.85;4.68;;;17.00;68.70;;;;;;4828174;29;20449;-75
2021/11/09 08:24:17;;;;;;;13.45;5.20;;;17.00;68.80;;;;;;4828214;29;20058;-74
2021/11/09 08:26:44;;;;;;;12.55;4.55;;;16.90;68.80;;;;;;4828361;29;20050;-74
2021/11/09 08:29:10;;;;;;;10.38;4.68;;;16.90;68.90;;;;;;4827932;29;20065;-74
2021/11/09 08:31:42;;;;;;;9.88;4.53;;;16.90;69.00;;;;;;4828246;29;20042;-75
2021/11/09 08:34:08;;;;;;;14.23;4.38;;;16.90;69.10;;;;;;4827893;29;20038;-74
2021/11/09 08:36:34;;;;;;;13.35;3.95;;;16.80;69.20;;;;;;4827406;29;20362;-74
2021/11/09 08:39:06;;;;;;;8.77;4.18;;;16.80;69.30;;;;;;4827313;29;20066;-74
2021/11/09 08:41:42;;;;;;;10.98;5.03;;;16.80;69.40;;;;;;4828181;29;20131;-75
2021/11/09 08:44:16;;;;;;;10.93;4.68;;;16.80;69.40;;;;;;4827751;29;20192;-73
2021/11/09 08:46:45;;;;;;;15.18;4.53;;;16.70;68.60;;;;;;4827044;29;20485;-76
2021/11/09 08:49:13;;;;;;;15.20;5.07;;;16.70;68.80;;;;;;4826820;29;20118;-71
2021/11/09 08:51:40;;;;;;;14.85;5.78;;;16.70;69.20;;;;;;4828762;29;20370;-73
2021/11/09 09:05:20;;;;;;;12.23;5.20;;;16.80;68.30;;;;;;4819171;29;20146;-70
2021/11/09 09:07:46;;;;;;;13.15;4.70;;;16.80;68.30;;;;;;4825917;29;20054;-73
2021/11/09 09:10:14;;;;;;;14.02;5.30;;;16.80;68.30;;;;;;4826577;29;20058;-72
2021/11/09 09:12:41;;;;;;;16.10;5.35;;;16.80;68.20;;;;;;4812330;29;20046;-74
2021/11/09 09:15:13;;;;;;;14.38;5.32;;;16.70;68.30;;;;;;4809478;29;20128;-73
2021/11/09 09:17:39;;;;;;;13.55;5.00;;;16.70;68.60;;;;;;4805867;29;20060;-76
2021/11/09 09:20:46;;;;;;;12.50;4.18;;;16.70;68.90;;;;;;4827497;29;20050;-72
2021/11/09 09:23:06;;;;;;;16.90;5.32;;;16.70;69.10;;;;;;4818907;29;20076;-73
2021/11/09 09:25:50;;;;;;;13.50;4.97;;;16.80;69.10;;;;;;4826727;29;20054;-71
2021/11/09 09:28:44;;;;;;;13.43;4.80;;;16.80;69.00;;;;;;4814610;29;20118;-73
2021/11/09 09:55:39;;;;;;;11.18;4.22;;;16.80;68.90;;;;;;4825581;29;20050;-74
2021/11/09 09:58:11;;;;;;;10.82;4.28;;;16.80;69.40;;;;;;4826436;29;20126;-75
2021/11/09 10:00:39;;;;;;;12.65;4.20;;;16.80;69.70;;;;;;4826886;29;20047;-75
2021/11/09 10:03:06;;;;;;;8.48;3.83;;;16.80;69.60;;;;;;4823988;29;20118;-76
2021/11/09 10:05:38;;;;;;;9.00;4.03;;;16.80;69.80;;;;;;4825796;29;20050;-76
2021/11/09 10:08:22;;;;;;;14.20;4.68;;;16.80;70.00;;;;;;4820672;29;20436;-76
2021/11/09 10:10:48;;;;;;;17.67;4.35;;;16.80;70.30;;;;;;4823251;29;20049;-78
2021/11/09 10:13:23;;;;;;;12.98;3.58;;;16.70;70.10;;;;;;4806438;29;20054;-72
2021/11/09 10:15:56;;;;;;;12.32;4.35;;;16.70;70.10;;;;;;4824973;29;20069;-75
2021/11/09 10:18:26;;;;;;;12.45;4.55;;;16.80;70.30;;;;;;4826042;29;20527;-81
2021/11/09 10:20:56;;;;;;;14.15;4.95;;;16.70;70.00;;;;;;4825832;29;20446;-74
2021/11/09 10:23:41;;;;;;;15.50;4.85;;;16.80;69.70;;;;;;4825542;29;20074;-73
2021/11/09 10:26:16;;;;;;;14.85;5.70;;;16.80;69.50;;;;;;4826607;29;20089;-74
2021/11/09 10:28:44;;;;;;;14.35;4.47;;;16.80;69.40;;;;;;4826163;29;20131;-73
2021/11/09 10:31:15;;;;;;;10.23;4.57;;;16.80;69.30;;;;;;4825578;29;20082;-74
2021/11/09 10:33:43;;;;;;;11.80;4.13;;;16.80;69.30;;;;;;4825848;29;20125;-73
2021/11/09 10:36:26;;;;;;;10.85;4.80;;;16.80;69.30;;;;;;4826324;29;20061;-74
2021/11/09 10:38:52;;;;;;;11.18;3.55;;;16.80;69.30;;;;;;4825902;29;20062;-73
2021/11/09 10:41:18;;;;;;;12.25;4.88;;;16.70;69.20;;;;;;4826533;29;20115;-74
2021/11/09 10:43:45;;;;;;;13.50;4.68;;;16.70;69.20;;;;;;4826173;29;20078;-73
2021/11/09 10:46:29;;;;;;;9.52;4.13;;;16.80;69.20;;;;;;4826450;29;20038;-73
2021/11/09 10:48:55;;;;;;;9.95;3.95;;;16.70;69.10;;;;;;4826280;29;20133;-74
2021/11/09 10:51:20;;;;;;;8.60;4.40;;;16.70;69.10;;;;;;4825699;29;20054;-74
2021/11/09 10:54:04;;;;;;;10.05;3.95;;;16.70;69.10;;;;;;4826101;29;20057;-73
2021/11/09 10:56:50;;;;;;;9.20;3.80;;;16.70;69.10;;;;;;4825982;29;20451;-74
2021/11/09 10:59:24;;;;;;;11.15;4.47;;;16.70;69.10;;;;;;4826109;29;20050;-74
2021/11/09 11:04:43;;;;;;;8.70;4.18;;;16.70;69.00;;;;;;4825455;29;20050;-73
2021/11/09 11:07:14;;;;;;;8.32;3.58;;;16.70;69.00;;;;;;4826336;29;20065;-73
2021/11/09 11:09:42;;;;;;;11.10;4.03;;;16.70;68.90;;;;;;4826029;29;20118;-75
2021/11/09 11:12:13;;;;;;;8.93;3.78;;;16.70;68.80;;;;;;4826049;29;20042;-73
2021/11/09 11:14:41;;;;;;;6.95;3.58;;;16.70;68.70;;;;;;4810225;29;20495;-73
2021/11/09 11:17:13;;;;;;;8.77;3.70;;;16.70;68.70;;;;;;4824758;29;20168;-73
2021/11/09 11:19:43;;;;;;;7.18;3.35;;;16.70;68.60;;;;;;4825866;29;20046;-74
2021/11/09 11:22:11;;;;;;;8.82;3.88;;;16.70;68.60;;;;;;4824903;29;20451;-73
2021/11/09 11:24:38;;;;;;;8.00;3.83;;;16.70;68.60;;;;;;4826150;29;20129;-73
2021/11/09 11:27:04;;;;;;;8.13;3.42;;;16.70;68.50;;;;;;4825974;29;20050;-73
2021/11/09 11:29:37;;;;;;;7.97;4.07;;;16.60;68.50;;;;;;4825451;29;20134;-74
2021/11/09 11:32:05;;;;;;;6.80;3.47;;;16.70;68.60;;;;;;4825900;29;20050;-74
2021/11/09 11:34:30;;;;;;;8.68;4.00;;;16.70;68.60;;;;;;4826127;29;20121;-73
2021/11/09 11:36:57;;;;;;;7.60;3.53;;;16.70;68.50;;;;;;4826069;29;20546;-74
2021/11/09 11:39:26;;;;;;;6.80;3.78;;;16.70;68.60;;;;;;4825730;29;20062;-74
2021/11/09 11:42:00;;;;;;;8.73;3.50;;;16.70;68.60;;;;;;4810790;29;20123;-76
2021/11/09 11:44:30;;;;;;;11.25;5.35;;;16.60;68.50;;;;;;4809638;29;20452;-73
2021/11/09 11:47:21;;;;;;;13.55;4.32;;;16.60;68.60;;;;;;4808548;29;20513;-76
2021/11/09 11:49:58;;;;;;;9.07;3.83;;;16.60;68.90;;;;;;4810844;29;20459;-80
2021/11/09 11:52:49;;;;;;;9.88;3.90;;;16.60;69.00;;;;;;4779701;29;20474;-77
2021/11/09 11:55:25;;;;;;;13.70;3.88;;;16.60;69.20;;;;;;4806978;29;20043;-81
2021/11/09 11:58:05;;;;;;;10.57;3.83;;;16.60;69.40;;;;;;4794192;29;20108;-80
2021/11/09 12:00:40;;;;;;;8.10;3.80;;;16.60;69.80;;;;;;4810671;29;20104;-80
2021/11/09 12:03:18;;;;;;;7.78;3.70;;;16.60;70.50;;;;;;4793674;29;20388;-76
2021/11/09 12:05:47;;;;;;;8.07;3.55;;;16.60;70.10;;;;;;4795027;29;20046;-75
2021/11/09 12:08:17;;;;;;;9.80;4.45;;;16.60;70.20;;;;;;4828703;29;20081;-75
2021/11/09 12:10:53;;;;;;;11.32;5.00;;;16.60;70.00;;;;;;4828171;29;20054;-76
2021/11/09 12:13:23;;;;;;;11.88;5.43;;;16.60;69.50;;;;;;4794186;29;20043;-75
2021/11/09 12:16:02;;;;;;;10.93;5.63;;;16.60;69.40;;;;;;4826919;29;20049;-76
2021/11/09 12:18:28;;;;;;;12.75;5.65;;;16.60;69.30;;;;;;4825415;29;20054;-76
2021/11/09 12:21:14;;;;;;;12.50;6.25;;;16.50;69.10;;;;;;4828458;29;20147;-78
2021/11/09 12:23:40;;;;;;;10.10;5.95;;;16.50;69.00;;;;;;4800090;29;20059;-74
2021/11/09 12:26:44;;;;;;;12.02;6.05;;;16.50;69.00;;;;;;4809298;29;20053;-76
2021/11/09 12:29:42;;;;;;;13.35;6.10;;;16.50;68.80;;;;;;4821442;29;20065;-76
2021/11/09 12:32:31;;;;;;;13.07;5.95;;;16.50;68.70;;;;;;4814194;29;20129;-77
2021/11/09 12:35:11;;;;;;;9.73;6.10;;;16.50;68.60;;;;;;4812648;29;20533;-82
2021/11/09 12:37:43;;;;;;;18.30;7.10;;;16.40;68.60;;;;;;4831990;29;20118;-76
2021/11/09 12:40:31;;;;;;;16.98;6.68;;;16.40;68.50;;;;;;4845291;29;20140;-73
2021/11/09 12:43:19;;;;;;;13.68;6.38;;;16.40;68.60;;;;;;4811753;29;20050;-77
2021/11/09 12:46:11;;;;;;;14.48;7.60;;;16.40;68.60;;;;;;4826542;29;20073;-83
2021/11/09 12:48:49;;;;;;;19.13;10.65;;;16.40;68.80;;;;;;4814192;29;20046;-79
2021/11/09 12:51:19;;;;;;;20.85;11.32;;;16.40;68.20;;;;;;4796406;29;20042;-79
2021/11/09 12:53:46;;;;;;;21.17;11.02;;;16.30;68.30;;;;;;4826868;29;20114;-79
2021/11/09 12:56:18;;;;;;;18.20;9.77;;;16.20;68.40;;;;;;4827636;29;20356;-78
2021/11/09 12:58:59;;;;;;;21.33;9.90;;;16.20;68.00;;;;;;4811766;29;20046;-73
2021/11/09 13:01:34;;;;;;;17.35;9.52;;;16.10;68.50;;;;;;4827067;29;20105;-75
2021/11/09 13:04:17;;;;;;;19.23;9.82;;;16.10;68.20;;;;;;4811057;29;20153;-78
2021/11/09 13:09:29;;;;;;;19.40;10.32;;;16.00;67.60;;;;;;4826811;29;20046;-78
2021/11/09 13:12:06;;;;;;;23.13;10.65;;;15.90;68.10;;;;;;4827469;29;20468;-77
2021/11/09 13:14:40;;;;;;;20.25;10.90;;;15.90;68.20;;;;;;4811850;29;20077;-75
2021/11/09 13:17:23;;;;;;;21.30;10.90;;;15.80;68.60;;;;;;4811852;29;20050;-76
2021/11/09 13:20:03;;;;;;;18.95;10.82;;;15.80;69.10;;;;;;4811476;29;20054;-73
2021/11/09 13:22:29;;;;;;;20.40;10.50;;;15.80;69.10;;;;;;4811517;29;20188;-76
2021/11/09 13:25:04;;;;;;;20.52;9.65;;;15.80;69.30;;;;;;4826695;29;20061;-74
2021/11/09 13:27:46;;;;;;;21.25;10.95;;;15.80;69.50;;;;;;4826775;29;20047;-73
2021/11/09 13:30:19;;;;;;;17.85;10.30;;;15.80;69.90;;;;;;4827435;29;20043;-73
2021/11/09 13:32:47;;;;;;;;;;;15.70;69.90;;;;;;4827729;29;20175;-76
2021/11/09 13:35:29;;;;;;;19.52;10.25;;;15.70;69.80;;;;;;4827136;29;20073;-73
2021/11/09 13:38:21;;;;;;;23.42;9.75;;;15.80;69.80;;;;;;4827242;29;20066;-77
2021/11/09 13:40:58;;;;;;;26.13;9.95;;;15.80;70.80;;;;;;4826411;29;20062;-78
2021/11/09 13:43:47;;;;;;;26.08;9.00;;;15.90;71.30;;;;;;4825668;29;20125;-75
2021/11/09 13:46:15;;;;;;;18.20;8.27;;;15.90;71.10;;;;;;4825591;29;20122;-71
2021/11/09 13:48:46;;;;;;;22.08;8.13;;;16.00;70.60;;;;;;4826481;29;20057;-72
2021/11/09 13:51:14;;;;;;;18.85;7.05;;;16.00;70.30;;;;;;4826988;29;20062;-77
2021/11/09 13:53:49;;;;;;;17.10;6.88;;;16.10;70.30;;;;;;4826691;29;20455;-73
2021/11/09 13:56:19;;;;;;;14.68;6.28;;;16.10;70.40;;;;;;4826954;29;20131;-73
2021/11/09 13:59:05;;;;;;;18.67;5.90;;;16.10;70.60;;;;;;4827005;29;20058;-73
2021/11/09 14:01:34;;;;;;;14.40;5.80;;;16.10;70.90;;;;;;4826871;29;20374;-73
2021/11/09 14:17:49;;;;;;;14.20;4.93;;;16.30;71.80;;;;;;4826259;29;20054;-73
2021/11/09 14:20:21;;;;;;;17.30;5.28;;;16.40;71.70;;;;;;4826520;29;20466;-75
2021/11/09 14:23:02;;;;;;;11.90;4.50;;;16.50;71.60;;;;;;4826661;29;20134;-73
2021/11/09 14:25:29;;;;;;;13.10;4.47;;;16.60;71.70;;;;;;4826809;29;20054;-72
2021/11/09 14:27:54;;;;;;;19.15;5.78;;;16.70;71.40;;;;;;4826634;29;20058;-73
2021/11/09 14:30:23;;;;;;;16.77;4.78;;;16.80;71.50;;;;;;4825637;29;20072;-74
2021/11/09 14:32:51;;;;;;;18.95;4.95;;;16.90;71.50;;;;;;4826252;29;20125;-74
2021/11/09 14:37:54;;;;;;;18.63;4.10;;;16.90;71.40;;;;;;4826055;29;20066;-74
2021/11/09 14:40:36;;;;;;;15.90;3.88;;;17.00;71.30;;;;;;4826523;29;20065;-74
2021/11/09 14:43:26;;;;;;;16.08;4.07;;;17.00;71.30;;;;;;4826306;29;20057;-74
2021/11/09 14:45:58;;;;;;;14.38;3.75;;;17.10;71.30;;;;;;4823419;29;20050;-77
2021/11/09 14:53:46;;;;;;;15.98;3.80;;;17.20;71.30;;;;;;4842218;29;20070;-75
2021/11/09 14:56:16;;;;;;;15.07;3.80;;;17.30;71.30;;;;;;4844105;29;20129;-74
2021/11/09 14:58:43;;;;;;;14.88;3.92;;;17.40;71.30;;;;;;4845013;29;20056;-73
2021/11/09 15:01:41;;;;;;;9.95;3.08;;;17.40;71.20;;;;;;4844504;29;20053;-73
2021/11/09 15:04:18;;;;;;;18.52;3.22;;;17.60;71.10;;;;;;4828016;29;20064;-74
2021/11/09 15:28:12;;;;;;;14.13;3.28;;;17.70;69.90;;;;;;4829469;29;20055;-72
2021/11/09 15:30:51;;;;;;;18.63;3.60;;;17.70;70.10;;;;;;4829584;29;20062;-72
2021/11/09 15:38:19;;;;;;;20.75;3.70;;;17.90;70.00;;;;;;4795366;29;20070;-75
2021/11/09 15:40:48;;;;;;;18.13;3.53;;;17.90;70.00;;;;;;4818715;29;20131;-72
2021/11/09 15:43:14;;;;;;;14.30;3.47;;;17.90;69.90;;;;;;4829102;29;20146;-73
2021/11/09 15:45:40;;;;;;;16.88;4.10;;;17.90;69.80;;;;;;4829159;29;20137;-71
2021/11/09 15:48:05;;;;;;;10.63;3.25;;;17.90;69.80;;;;;;4828898;29;20097;-73
2021/11/09 15:50:32;;;;;;;22.05;5.15;;;18.00;69.80;;;;;;4828811;29;20070;-71
2021/11/09 15:52:58;;;;;;;12.73;3.65;;;18.00;69.70;;;;;;4829010;29;20058;-72
2021/11/09 15:55:24;;;;;;;17.60;3.70;;;18.00;69.60;;;;;;4828774;29;20132;-72
2021/11/09 15:57:49;;;;;;;15.13;3.40;;;18.00;69.60;;;;;;4829148;29;20069;-73
2021/11/09 16:00:16;;;;;;;13.38;3.30;;;18.00;69.50;;;;;;4828690;29;20053;-72
2021/11/09 16:02:43;;;;;;;19.50;3.33;;;18.00;69.40;;;;;;4827764;29;20097;-72
2021/11/09 16:05:09;;;;;;;14.88;3.83;;;18.10;69.40;;;;;;4828810;29;20090;-73
2021/11/09 16:07:35;;;;;;;9.23;3.53;;;18.10;69.40;;;;;;4822283;29;20051;-71
2021/11/09 16:10:06;;;;;;;10.32;3.15;;;18.10;69.30;;;;;;4802508;29;20127;-71
2021/11/09 16:12:32;;;;;;;13.30;3.55;;;18.10;69.20;;;;;;4825577;29;20050;-75
2021/11/09 16:14:59;;;;;;;13.60;2.85;;;18.10;69.20;;;;;;4828585;29;20054;-77
2021/11/09 16:17:25;;;;;;;12.23;3.63;;;18.10;68.90;;;;;;4827805;29;20054;-76
2021/11/09 16:19:51;;;;;;;11.90;4.00;;;18.10;69.20;;;;;;4827989;29;20149;-74
2021/11/09 16:22:27;;;;;;;12.48;4.47;;;18.10;69.00;;;;;;4828500;29;20141;-72
2021/11/09 16:24:54;;;;;;;15.13;4.15;;;18.10;68.60;;;;;;4827329;29;20118;-71
2021/11/09 16:27:20;;;;;;;13.07;4.18;;;18.10;68.80;;;;;;4827175;29;20513;-72
2021/11/09 16:29:58;;;;;;;18.05;4.38;;;18.10;68.80;;;;;;4828036;29;20086;-72
2021/11/09 16:32:26;;;;;;;14.13;4.78;;;18.10;69.10;;;;;;4828350;29;20069;-72
2021/11/09 16:34:57;;;;;;;11.63;3.80;;;18.10;69.20;;;;;;4828377;29;20054;-74
2021/11/09 16:37:24;;;;;;;13.07;4.00;;;18.10;69.20;;;;;;4827650;29;20542;-71
2021/11/09 16:40:01;;;;;;;21.27;4.00;;;18.10;69.20;;;;;;4828363;29;20058;-71
2021/11/09 16:42:32;;;;;;;12.48;3.55;;;18.10;69.30;;;;;;4828586;29;20359;-71
2021/11/09 16:44:58;;;;;;;16.55;3.65;;;18.10;69.10;;;;;;4827946;29;20439;-70
2021/11/09 16:47:24;;;;;;;13.57;3.42;;;18.10;69.00;;;;;;4827918;29;20046;-71
2021/11/09 16:52:25;;;;;;;10.77;3.85;;;18.10;68.90;;;;;;4828243;29;20055;-71
2021/11/09 17:02:25;;;;;;;11.98;4.32;;;17.90;68.70;;;;;;4812765;29;20058;-72
2021/11/09 17:17:17;;;;;;;13.63;4.40;;;17.80;68.90;;;;;;4829942;29;20390;-73
2021/11/09 18:15:13;;;;;;;7.10;3.75;;;17.50;72.90;;;;;;4826147;29;20058;-73
2021/11/09 18:20:24;;;;;;;8.48;3.70;;;17.40;72.70;;;;;;4826358;29;20062;-73
2021/11/09 18:22:53;;;;;;;6.40;3.30;;;17.40;72.80;;;;;;4826567;29;20058;-73
2021/11/09 18:25:21;;;;;;;7.20;3.05;;;17.40;72.80;;;;;;4826853;29;20047;-72
2021/11/09 18:27:48;;;;;;;6.38;3.20;;;17.40;72.80;;;;;;4826407;29;20065;-73
2021/11/09 18:30:17;;;;;;;8.50;3.60;;;17.40;72.80;;;;;;4826774;29;20093;-72
2021/11/09 18:32:43;;;;;;;11.13;4.07;;;17.40;72.80;;;;;;4826618;29;20138;-72
2021/11/09 18:35:11;;;;;;;8.63;3.95;;;17.40;72.80;;;;;;4826107;29;20050;-72
2021/11/09 18:37:37;;;;;;;10.23;3.70;;;17.40;72.50;;;;;;4825874;29;20158;-73
2021/11/09 18:40:06;;;;;;;8.23;3.78;;;17.40;72.40;;;;;;4826193;29;20112;-73
2021/11/09 18:42:33;;;;;;;9.10;4.10;;;17.30;72.50;;;;;;4824182;29;20050;-74
2021/11/09 18:45:00;;;;;;;12.95;4.20;;;17.30;72.50;;;;;;4825105;29;20404;-74
2021/11/09 18:47:25;;;;;;;11.68;4.00;;;17.30;72.60;;;;;;4826575;29;20062;-73
2021/11/09 18:49:51;;;;;;;8.45;3.83;;;17.30;72.60;;;;;;4826375;29;20050;-73
2021/11/09 18:52:17;;;;;;;9.18;4.53;;;17.30;72.60;;;;;;4825309;29;20054;-73
2021/11/09 18:54:43;;;;;;;9.25;4.30;;;17.30;72.70;;;;;;4826254;29;20046;-72
2021/11/09 18:57:11;;;;;;;7.10;4.18;;;17.30;72.80;;;;;;4825763;29;20149;-73
2021/11/09 18:59:38;;;;;;;9.70;4.22;;;17.20;72.70;;;;;;4826468;29;20053;-73
2021/11/09 19:02:06;;;;;;;10.23;4.10;;;17.20;72.80;;;;;;4825460;29;20060;-73
2021/11/09 19:04:32;;;;;;;10.52;3.88;;;17.20;72.90;;;;;;4826089;29;20059;-73
2021/11/09 19:06:58;;;;;;;8.60;3.65;;;17.20;72.90;;;;;;4825978;29;20041;-72
2021/11/09 19:09:25;;;;;;;9.20;3.58;;;17.20;72.70;;;;;;4825905;29;20047;-79
2021/11/09 19:11:52;;;;;;;15.02;4.10;;;17.20;72.70;;;;;;4810257;29;20050;-75
2021/11/09 19:14:20;;;;;;;9.73;4.85;;;17.20;72.70;;;;;;4826121;29;20430;-71
2021/11/09 19:16:48;;;;;;;16.92;6.25;;;17.10;72.70;;;;;;4825746;29;20335;-73
2021/11/09 19:19:16;;;;;;;16.38;5.80;;;17.00;72.80;;;;;;4826007;29;20058;-73
2021/11/09 19:21:43;;;;;;;10.20;4.68;;;17.00;73.10;;;;;;4825649;29;20069;-72
2021/11/09 19:24:09;;;;;;;11.82;5.53;;;17.00;72.90;;;;;;4822434;29;20059;-72
2021/11/09 19:26:35;;;;;;;10.63;4.70;;;17.00;72.90;;;;;;4825976;29;20059;-73
2021/11/09 19:29:01;;;;;;;10.50;5.35;;;17.00;72.80;;;;;;4825809;29;20170;-72
2021/11/09 19:31:27;;;;;;;11.15;5.10;;;17.00;72.70;;;;;;4826240;29;20054;-73
2021/11/09 19:33:53;;;;;;;11.35;6.15;;;17.00;72.70;;;;;;4825881;29;20386;-72
2021/11/09 19:36:20;;;;;;;12.23;5.55;;;17.00;72.60;;;;;;4826389;29;20061;-73
2021/11/09 19:38:45;;;;;;;12.95;6.03;;;17.00;72.80;;;;;;4826114;29;20215;-72
2021/11/09 19:41:11;;;;;;;12.85;5.50;;;17.00;72.80;;;;;;4815153;29;20086;-73
2021/11/09 19:43:40;;;;;;;12.23;6.00;;;17.00;72.80;;;;;;4807614;29;20058;-73
2021/11/09 19:46:07;;;;;;;11.90;5.13;;;17.00;72.90;;;;;;4808033;29;20137;-73
2021/11/09 19:48:35;;;;;;;11.20;5.63;;;17.00;72.90;;;;;;4807529;29;20099;-72
2021/11/09 19:51:03;;;;;;;10.55;5.40;;;17.00;73.00;;;;;;4800916;29;20050;-73
2021/11/09 19:53:30;;;;;;;13.35;5.75;;;17.00;73.00;;;;;;4807674;29;20066;-73
2021/11/09 19:55:58;;;;;;;12.73;6.07;;;17.00;73.00;;;;;;4807147;29;20379;-73
2021/11/09 19:58:28;;;;;;;13.50;5.80;;;17.00;73.00;;;;;;4807446;29;20101;-73
2021/11/09 20:00:57;;;;;;;12.43;6.18;;;17.00;73.10;;;;;;4807237;29;20474;-73
2021/11/09 20:03:26;;;;;;;14.07;5.95;;;17.00;73.00;;;;;;4810028;29;20054;-73
2021/11/09 20:05:55;;;;;;;9.77;5.28;;;17.00;73.10;;;;;;4810903;29;20065;-73
2021/11/09 20:08:22;;;;;;;10.90;5.22;;;17.00;73.60;;;;;;4811018;29;20042;-72
2021/11/09 20:10:50;;;;;;;15.60;5.85;;;17.00;73.00;;;;;;4810513;29;20047;-73
2021/11/09 20:13:19;;;;;;;10.48;6.07;;;16.90;73.00;;;;;;4811144;29;20062;-73
2021/11/09 20:15:48;;;;;;;12.50;5.68;;;17.00;73.10;;;;;;4810634;29;20047;-72
2021/11/09 20:18:16;;;;;;;12.88;5.82;;;16.90;73.00;;;;;;4825064;29;20058;-73
2021/11/09 20:20:42;;;;;;;11.85;5.38;;;16.90;73.00;;;;;;4828995;29;20058;-74
2021/11/09 20:23:09;;;;;;;10.05;5.10;;;16.90;73.10;;;;;;4828596;29;20395;-73
2021/11/09 20:25:35;;;;;;;12.23;6.15;;;16.90;73.00;;;;;;4828468;29;20102;-73
2021/11/09 20:28:01;;;;;;;15.15;5.68;;;16.90;73.10;;;;;;4828477;29;20198;-72
2021/11/09 20:30:30;;;;;;;10.45;5.25;;;16.90;73.10;;;;;;4822866;29;20118;-72
2021/11/09 20:32:56;;;;;;;14.98;5.18;;;16.90;73.00;;;;;;4800431;29;20047;-73
2021/11/09 20:35:23;;;;;;;9.95;5.18;;;16.90;72.90;;;;;;4809123;29;20130;-74
2021/11/09 20:37:52;;;;;;;10.18;4.63;;;16.90;72.90;;;;;;4815618;29;20421;-73
2021/11/09 20:40:21;;;;;;;13.20;5.70;;;16.90;72.90;;;;;;4828554;29;20055;-78
2021/11/09 20:42:47;;;;;;;11.15;4.82;;;17.00;72.80;;;;;;4828277;29;20141;-74
2021/11/09 20:45:16;;;;;;;10.20;5.30;;;17.00;72.80;;;;;;4828272;29;20050;-72
2021/11/09 20:47:45;;;;;;;11.13;5.72;;;17.00;72.70;;;;;;4828433;29;20142;-73
2021/11/09 20:50:12;;;;;;;9.65;5.20;;;17.00;72.60;;;;;;4828296;29;20055;-74
2021/11/09 20:52:38;;;;;;;13.27;4.93;;;17.00;72.60;;;;;;4827388;29;20119;-73
2021/11/09 20:55:06;;;;;;;10.52;5.13;;;17.10;72.70;;;;;;4828061;29;20050;-73
2021/11/09 20:57:32;;;;;;;9.15;5.00;;;17.00;72.60;;;;;;4812050;29;20046;-73
2021/11/09 20:59:58;;;;;;;10.15;5.07;;;17.00;72.70;;;;;;4827591;29;20098;-73
2021/11/09 21:02:24;;;;;;;9.75;4.85;;;17.00;72.80;;;;;;4827825;29;20140;-72
2021/11/09 21:04:52;;;;;;;12.48;4.75;;;17.00;72.80;;;;;;4827681;29;20121;-72
